sensor_id;sensor_type;location;lat;lon;timestamp;temperature;humidity
971;DHT22;28939;45.540;-122.632;2022-08-04T00:02:06;29.40;67.40
971;DHT22;28939;45.540;-122.632;2022-08-04T00:04:43;29.40;65.70
971;DHT22;28939;45.540;-122.632;2022-08-04T00:07:18;29.30;66.40
971;DHT22;28939;45.540;-122.632;2022-08-04T00:10:16;29.00;66.50
971;DHT22;28939;45.540;-122.632;2022-08-04T00:12:50;28.70;66.40
971;DHT22;28939;45.540;-122.632;2022-08-04T00:15:23;28.60;67.80
971;DHT22;28939;45.540;-122.632;2022-08-04T00:17:58;28.80;68.60
971;DHT22;28939;45.540;-122.632;2022-08-04T00:20:31;28.90;67.90
971;DHT22;28939;45.540;-122.632;2022-08-04T00:23:02;28.60;66.60
971;DHT22;28939;45.540;-122.632;2022-08-04T00:25:38;28.60;67.50
971;DHT22;28939;45.540;-122.632;2022-08-04T00:28:09;28.40;67.00
971;DHT22;28939;45.540;-122.632;2022-08-04T00:30:41;28.30;68.60
971;DHT22;28939;45.540;-122.632;2022-08-04T00:33:12;28.20;68.20
971;DHT22;28939;45.540;-122.632;2022-08-04T00:35:49;28.00;68.60
971;DHT22;28939;45.540;-122.632;2022-08-04T00:38:20;28.10;69.20
971;DHT22;28939;45.540;-122.632;2022-08-04T00:40:59;28.10;69.20
971;DHT22;28939;45.540;-122.632;2022-08-04T00:43:34;27.90;68.50
971;DHT22;28939;45.540;-122.632;2022-08-04T00:46:26;27.90;69.00
971;DHT22;28939;45.540;-122.632;2022-08-04T00:49:35;27.60;68.80
971;DHT22;28939;45.540;-122.632;2022-08-04T00:52:21;27.40;68.90
971;DHT22;28939;45.540;-122.632;2022-08-04T00:55:09;27.20;70.00
971;DHT22;28939;45.540;-122.632;2022-08-04T00:58:16;27.10;70.50
971;DHT22;28939;45.540;-122.632;2022-08-04T01:00:59;27.00;70.50
971;DHT22;28939;45.540;-122.632;2022-08-04T01:03:49;27.00;70.40
971;DHT22;28939;45.540;-122.632;2022-08-04T01:06:30;27.10;70.70
971;DHT22;28939;45.540;-122.632;2022-08-04T01:09:14;27.00;71.40
971;DHT22;28939;45.540;-122.632;2022-08-04T01:12:05;27.10;70.90
971;DHT22;28939;45.540;-122.632;2022-08-04T01:15:00;27.00;70.80
971;DHT22;28939;45.540;-122.632;2022-08-04T01:17:53;26.90;70.70
971;DHT22;28939;45.540;-122.632;2022-08-04T01:20:28;27.00;71.50
971;DHT22;28939;45.540;-122.632;2022-08-04T01:26:44;27.00;70.80
971;DHT22;28939;45.540;-122.632;2022-08-04T01:29:30;26.90;71.70
971;DHT22;28939;45.540;-122.632;2022-08-04T01:32:19;27.00;71.70
971;DHT22;28939;45.540;-122.632;2022-08-04T01:34:58;27.00;71.20
971;DHT22;28939;45.540;-122.632;2022-08-04T01:37:44;26.90;71.70
971;DHT22;28939;45.540;-122.632;2022-08-04T01:40:18;26.90;71.70
971;DHT22;28939;45.540;-122.632;2022-08-04T01:42:52;26.80;71.70
971;DHT22;28939;45.540;-122.632;2022-08-04T01:45:25;26.70;71.90
971;DHT22;28939;45.540;-122.632;2022-08-04T01:47:57;26.30;72.90
971;DHT22;28939;45.540;-122.632;2022-08-04T01:50:34;26.30;74.30
971;DHT22;28939;45.540;-122.632;2022-08-04T01:53:06;26.30;74.10
971;DHT22;28939;45.540;-122.632;2022-08-04T01:55:37;26.30;73.20
971;DHT22;28939;45.540;-122.632;2022-08-04T01:58:23;26.30;74.60
971;DHT22;28939;45.540;-122.632;2022-08-04T02:01:01;26.30;73.70
971;DHT22;28939;45.540;-122.632;2022-08-04T02:03:37;26.30;74.00
971;DHT22;28939;45.540;-122.632;2022-08-04T02:06:31;26.30;74.00
971;DHT22;28939;45.540;-122.632;2022-08-04T02:09:20;26.20;74.00
971;DHT22;28939;45.540;-122.632;2022-08-04T02:12:02;26.10;74.20
971;DHT22;28939;45.540;-122.632;2022-08-04T02:14:49;25.90;74.70
971;DHT22;28939;45.540;-122.632;2022-08-04T02:17:28;25.60;75.40
971;DHT22;28939;45.540;-122.632;2022-08-04T02:20:05;25.50;75.90
971;DHT22;28939;45.540;-122.632;2022-08-04T02:22:41;25.40;76.40
971;DHT22;28939;45.540;-122.632;2022-08-04T02:25:23;25.20;77.30
971;DHT22;28939;45.540;-122.632;2022-08-04T02:28:14;25.00;77.40
971;DHT22;28939;45.540;-122.632;2022-08-04T02:30:53;24.80;77.50
971;DHT22;28939;45.540;-122.632;2022-08-04T02:33:33;24.70;77.90
971;DHT22;28939;45.540;-122.632;2022-08-04T02:36:07;24.60;78.70
971;DHT22;28939;45.540;-122.632;2022-08-04T02:38:53;24.50;78.70
971;DHT22;28939;45.540;-122.632;2022-08-04T02:41:26;24.40;79.50
971;DHT22;28939;45.540;-122.632;2022-08-04T02:43:59;24.30;80.30
971;DHT22;28939;45.540;-122.632;2022-08-04T02:46:31;24.20;79.70
971;DHT22;28939;45.540;-122.632;2022-08-04T02:49:05;24.00;81.30
971;DHT22;28939;45.540;-122.632;2022-08-04T02:51:39;23.90;82.40
971;DHT22;28939;45.540;-122.632;2022-08-04T02:54:10;23.80;81.70
971;DHT22;28939;45.540;-122.632;2022-08-04T02:56:43;23.70;82.80
971;DHT22;28939;45.540;-122.632;2022-08-04T02:59:19;23.60;83.10
971;DHT22;28939;45.540;-122.632;2022-08-04T03:01:55;23.50;82.80
971;DHT22;28939;45.540;-122.632;2022-08-04T03:04:36;23.50;83.10
971;DHT22;28939;45.540;-122.632;2022-08-04T03:07:30;23.30;84.20
971;DHT22;28939;45.540;-122.632;2022-08-04T03:10:25;23.30;84.10
971;DHT22;28939;45.540;-122.632;2022-08-04T03:16:45;23.00;85.60
971;DHT22;28939;45.540;-122.632;2022-08-04T03:23:15;22.90;86.10
971;DHT22;28939;45.540;-122.632;2022-08-04T03:26:18;22.60;86.60
971;DHT22;28939;45.540;-122.632;2022-08-04T03:48:35;21.30;91.20
971;DHT22;28939;45.540;-122.632;2022-08-04T03:51:18;21.00;91.80
971;DHT22;28939;45.540;-122.632;2022-08-04T04:01:09;20.70;93.10
971;DHT22;28939;45.540;-122.632;2022-08-04T04:04:15;20.50;93.70
971;DHT22;28939;45.540;-122.632;2022-08-04T04:10:24;20.30;94.80
971;DHT22;28939;45.540;-122.632;2022-08-04T04:13:27;20.20;95.30
971;DHT22;28939;45.540;-122.632;2022-08-04T04:16:19;20.00;96.10
971;DHT22;28939;45.540;-122.632;2022-08-04T04:19:34;20.00;96.50
971;DHT22;28939;45.540;-122.632;2022-08-04T04:22:21;19.80;97.30
971;DHT22;28939;45.540;-122.632;2022-08-04T04:25:10;19.80;97.90
971;DHT22;28939;45.540;-122.632;2022-08-04T04:27:54;19.80;98.20
971;DHT22;28939;45.540;-122.632;2022-08-04T04:30:57;19.70;98.50
971;DHT22;28939;45.540;-122.632;2022-08-04T04:33:40;19.70;98.80
971;DHT22;28939;45.540;-122.632;2022-08-04T04:36:21;19.60;99.00
971;DHT22;28939;45.540;-122.632;2022-08-04T04:39:09;19.50;99.70
971;DHT22;28939;45.540;-122.632;2022-08-04T04:42:06;19.40;99.90
971;DHT22;28939;45.540;-122.632;2022-08-04T04:45:02;19.30;99.90
971;DHT22;28939;45.540;-122.632;2022-08-04T04:47:46;19.20;99.90
971;DHT22;28939;45.540;-122.632;2022-08-04T04:50:46;19.10;99.90
971;DHT22;28939;45.540;-122.632;2022-08-04T04:53:26;19.10;99.90
971;DHT22;28939;45.540;-122.632;2022-08-04T04:56:04;19.00;99.90
971;DHT22;28939;45.540;-122.632;2022-08-04T04:58:36;19.00;99.90
971;DHT22;28939;45.540;-122.632;2022-08-04T05:01:26;18.90;99.90
971;DHT22;28939;45.540;-122.632;2022-08-04T05:04:15;18.90;99.90
971;DHT22;28939;45.540;-122.632;2022-08-04T05:07:14;18.80;99.90
971;DHT22;28939;45.540;-122.632;2022-08-04T05:10:00;18.70;99.90
971;DHT22;28939;45.540;-122.632;2022-08-04T05:12:50;18.60;99.90
971;DHT22;28939;45.540;-122.632;2022-08-04T05:15:43;18.50;99.90
971;DHT22;28939;45.540;-122.632;2022-08-04T05:18:21;18.40;99.90
971;DHT22;28939;45.540;-122.632;2022-08-04T05:20:55;18.30;99.90
971;DHT22;28939;45.540;-122.632;2022-08-04T05:23:28;18.30;99.90
971;DHT22;28939;45.540;-122.632;2022-08-04T05:26:03;18.20;99.90
971;DHT22;28939;45.540;-122.632;2022-08-04T05:28:40;18.20;99.90
971;DHT22;28939;45.540;-122.632;2022-08-04T05:31:17;18.20;99.90
971;DHT22;28939;45.540;-122.632;2022-08-04T05:33:53;18.20;99.90
971;DHT22;28939;45.540;-122.632;2022-08-04T05:36:30;18.20;99.90
971;DHT22;28939;45.540;-122.632;2022-08-04T05:39:12;18.10;99.90
971;DHT22;28939;45.540;-122.632;2022-08-04T05:41:45;18.10;99.90
971;DHT22;28939;45.540;-122.632;2022-08-04T05:44:27;18.00;99.90
971;DHT22;28939;45.540;-122.632;2022-08-04T05:46:58;17.90;99.90
971;DHT22;28939;45.540;-122.632;2022-08-04T05:49:31;17.90;99.90
971;DHT22;28939;45.540;-122.632;2022-08-04T05:52:03;18.00;99.90
971;DHT22;28939;45.540;-122.632;2022-08-04T05:54:35;17.80;99.90
971;DHT22;28939;45.540;-122.632;2022-08-04T05:57:07;17.80;99.90
971;DHT22;28939;45.540;-122.632;2022-08-04T05:59:41;17.70;99.90
971;DHT22;28939;45.540;-122.632;2022-08-04T06:02:16;17.70;99.90
971;DHT22;28939;45.540;-122.632;2022-08-04T06:04:49;17.70;99.90
971;DHT22;28939;45.540;-122.632;2022-08-04T06:07:20;17.60;99.90
971;DHT22;28939;45.540;-122.632;2022-08-04T06:09:54;17.60;99.90
971;DHT22;28939;45.540;-122.632;2022-08-04T06:12:29;17.60;99.90
971;DHT22;28939;45.540;-122.632;2022-08-04T06:15:05;17.50;99.90
971;DHT22;28939;45.540;-122.632;2022-08-04T06:17:41;17.50;99.90
971;DHT22;28939;45.540;-122.632;2022-08-04T06:20:33;17.50;99.90
971;DHT22;28939;45.540;-122.632;2022-08-04T06:23:15;17.60;99.90
971;DHT22;28939;45.540;-122.632;2022-08-04T06:25:52;17.50;99.90
971;DHT22;28939;45.540;-122.632;2022-08-04T06:28:23;17.50;99.90
971;DHT22;28939;45.540;-122.632;2022-08-04T06:31:01;17.50;99.90
971;DHT22;28939;45.540;-122.632;2022-08-04T06:33:53;17.50;99.90
971;DHT22;28939;45.540;-122.632;2022-08-04T06:36:24;17.50;99.90
971;DHT22;28939;45.540;-122.632;2022-08-04T06:38:55;17.60;99.90
971;DHT22;28939;45.540;-122.632;2022-08-04T06:41:28;17.60;99.90
971;DHT22;28939;45.540;-122.632;2022-08-04T06:44:01;17.60;99.90
971;DHT22;28939;45.540;-122.632;2022-08-04T06:46:36;17.70;99.90
971;DHT22;28939;45.540;-122.632;2022-08-04T06:49:07;17.70;99.90
971;DHT22;28939;45.540;-122.632;2022-08-04T06:51:39;17.80;99.90
971;DHT22;28939;45.540;-122.632;2022-08-04T06:54:16;17.80;99.90
971;DHT22;28939;45.540;-122.632;2022-08-04T06:56:48;17.80;99.90
971;DHT22;28939;45.540;-122.632;2022-08-04T06:59:19;17.90;99.90
971;DHT22;28939;45.540;-122.632;2022-08-04T07:01:53;18.00;99.90
971;DHT22;28939;45.540;-122.632;2022-08-04T07:04:25;17.90;99.90
971;DHT22;28939;45.540;-122.632;2022-08-04T07:06:56;18.00;99.90
971;DHT22;28939;45.540;-122.632;2022-08-04T07:09:28;18.10;99.90
971;DHT22;28939;45.540;-122.632;2022-08-04T07:12:00;18.10;99.90
971;DHT22;28939;45.540;-122.632;2022-08-04T07:14:31;18.10;99.90
971;DHT22;28939;45.540;-122.632;2022-08-04T07:17:07;18.00;99.90
971;DHT22;28939;45.540;-122.632;2022-08-04T07:19:38;18.00;99.90
971;DHT22;28939;45.540;-122.632;2022-08-04T07:22:09;18.00;99.90
971;DHT22;28939;45.540;-122.632;2022-08-04T07:24:54;18.00;99.90
971;DHT22;28939;45.540;-122.632;2022-08-04T07:27:28;18.00;99.90
971;DHT22;28939;45.540;-122.632;2022-08-04T07:30:17;17.90;99.90
971;DHT22;28939;45.540;-122.632;2022-08-04T07:32:54;17.90;99.90
971;DHT22;28939;45.540;-122.632;2022-08-04T07:35:26;18.00;99.90
971;DHT22;28939;45.540;-122.632;2022-08-04T07:38:17;18.10;99.90
971;DHT22;28939;45.540;-122.632;2022-08-04T07:40:54;18.00;99.90
971;DHT22;28939;45.540;-122.632;2022-08-04T07:43:25;18.00;99.90
971;DHT22;28939;45.540;-122.632;2022-08-04T07:45:56;18.10;99.90
971;DHT22;28939;45.540;-122.632;2022-08-04T07:48:29;18.00;99.90
971;DHT22;28939;45.540;-122.632;2022-08-04T07:51:01;18.00;99.90
971;DHT22;28939;45.540;-122.632;2022-08-04T07:53:33;18.10;99.90
971;DHT22;28939;45.540;-122.632;2022-08-04T07:56:22;18.00;99.90
971;DHT22;28939;45.540;-122.632;2022-08-04T07:58:54;18.00;99.90
971;DHT22;28939;45.540;-122.632;2022-08-04T08:01:25;18.10;99.90
971;DHT22;28939;45.540;-122.632;2022-08-04T08:03:58;18.00;99.90
971;DHT22;28939;45.540;-122.632;2022-08-04T08:06:29;18.10;99.90
971;DHT22;28939;45.540;-122.632;2022-08-04T08:09:07;18.00;99.90
971;DHT22;28939;45.540;-122.632;2022-08-04T08:11:41;18.10;99.90
971;DHT22;28939;45.540;-122.632;2022-08-04T08:14:32;18.00;99.90
971;DHT22;28939;45.540;-122.632;2022-08-04T08:17:05;18.00;99.90
971;DHT22;28939;45.540;-122.632;2022-08-04T08:19:37;18.00;99.90
971;DHT22;28939;45.540;-122.632;2022-08-04T08:22:10;17.90;99.90
971;DHT22;28939;45.540;-122.632;2022-08-04T08:24:41;18.00;99.90
971;DHT22;28939;45.540;-122.632;2022-08-04T08:27:12;18.00;99.90
971;DHT22;28939;45.540;-122.632;2022-08-04T08:29:44;18.10;99.90
971;DHT22;28939;45.540;-122.632;2022-08-04T08:32:15;18.10;99.90
971;DHT22;28939;45.540;-122.632;2022-08-04T08:34:48;18.10;99.90
971;DHT22;28939;45.540;-122.632;2022-08-04T08:37:24;18.10;99.90
971;DHT22;28939;45.540;-122.632;2022-08-04T08:40:03;18.10;99.90
971;DHT22;28939;45.540;-122.632;2022-08-04T08:42:54;18.10;99.90
971;DHT22;28939;45.540;-122.632;2022-08-04T08:46:06;18.10;99.90
971;DHT22;28939;45.540;-122.632;2022-08-04T08:49:06;18.10;99.90
971;DHT22;28939;45.540;-122.632;2022-08-04T08:52:09;18.00;99.90
971;DHT22;28939;45.540;-122.632;2022-08-04T08:55:25;18.00;99.90
971;DHT22;28939;45.540;-122.632;2022-08-04T08:58:21;18.10;99.90
971;DHT22;28939;45.540;-122.632;2022-08-04T09:00:58;18.10;99.90
971;DHT22;28939;45.540;-122.632;2022-08-04T09:03:58;18.00;99.90
971;DHT22;28939;45.540;-122.632;2022-08-04T09:06:49;18.00;99.90
971;DHT22;28939;45.540;-122.632;2022-08-04T09:09:55;18.10;99.90
971;DHT22;28939;45.540;-122.632;2022-08-04T09:12:35;18.10;99.90
971;DHT22;28939;45.540;-122.632;2022-08-04T09:15:14;18.00;99.90
971;DHT22;28939;45.540;-122.632;2022-08-04T09:17:50;18.00;99.90
971;DHT22;28939;45.540;-122.632;2022-08-04T09:20:30;18.00;99.90
971;DHT22;28939;45.540;-122.632;2022-08-04T09:23:24;18.00;99.90
971;DHT22;28939;45.540;-122.632;2022-08-04T09:26:03;17.80;99.90
971;DHT22;28939;45.540;-122.632;2022-08-04T09:28:44;17.90;99.90
971;DHT22;28939;45.540;-122.632;2022-08-04T09:31:23;17.90;99.90
971;DHT22;28939;45.540;-122.632;2022-08-04T09:34:31;17.90;99.90
971;DHT22;28939;45.540;-122.632;2022-08-04T09:37:14;17.90;99.90
971;DHT22;28939;45.540;-122.632;2022-08-04T09:39:53;17.80;99.90
971;DHT22;28939;45.540;-122.632;2022-08-04T09:42:36;17.80;99.90
971;DHT22;28939;45.540;-122.632;2022-08-04T09:45:15;17.80;99.90
971;DHT22;28939;45.540;-122.632;2022-08-04T09:47:57;17.90;99.90
971;DHT22;28939;45.540;-122.632;2022-08-04T09:50:36;17.80;99.90
971;DHT22;28939;45.540;-122.632;2022-08-04T09:53:27;17.80;99.90
971;DHT22;28939;45.540;-122.632;2022-08-04T09:56:09;17.80;99.90
971;DHT22;28939;45.540;-122.632;2022-08-04T09:58:51;17.80;99.90
971;DHT22;28939;45.540;-122.632;2022-08-04T10:01:24;17.80;99.90
971;DHT22;28939;45.540;-122.632;2022-08-04T10:04:00;17.80;99.90
971;DHT22;28939;45.540;-122.632;2022-08-04T10:09:56;17.80;99.90
971;DHT22;28939;45.540;-122.632;2022-08-04T10:12:37;17.80;99.90
971;DHT22;28939;45.540;-122.632;2022-08-04T10:15:18;17.80;99.90
971;DHT22;28939;45.540;-122.632;2022-08-04T10:18:08;17.70;99.90
971;DHT22;28939;45.540;-122.632;2022-08-04T10:20:49;17.70;99.90
971;DHT22;28939;45.540;-122.632;2022-08-04T10:23:45;17.60;99.90
971;DHT22;28939;45.540;-122.632;2022-08-04T10:26:41;17.60;99.90
971;DHT22;28939;45.540;-122.632;2022-08-04T10:29:17;17.50;99.90
971;DHT22;28939;45.540;-122.632;2022-08-04T10:31:55;17.50;99.90
971;DHT22;28939;45.540;-122.632;2022-08-04T10:34:30;17.50;99.90
971;DHT22;28939;45.540;-122.632;2022-08-04T10:37:11;17.40;99.90
971;DHT22;28939;45.540;-122.632;2022-08-04T10:39:57;17.30;99.90
971;DHT22;28939;45.540;-122.632;2022-08-04T10:42:52;17.30;99.90
971;DHT22;28939;45.540;-122.632;2022-08-04T10:45:35;17.20;99.90
971;DHT22;28939;45.540;-122.632;2022-08-04T10:48:18;17.30;99.90
971;DHT22;28939;45.540;-122.632;2022-08-04T10:51:05;17.30;99.90
971;DHT22;28939;45.540;-122.632;2022-08-04T10:53:40;17.30;99.90
971;DHT22;28939;45.540;-122.632;2022-08-04T10:56:14;17.20;99.90
971;DHT22;28939;45.540;-122.632;2022-08-04T10:58:51;17.10;99.90
971;DHT22;28939;45.540;-122.632;2022-08-04T11:01:26;17.00;99.90
971;DHT22;28939;45.540;-122.632;2022-08-04T11:04:28;17.00;99.90
971;DHT22;28939;45.540;-122.632;2022-08-04T11:07:00;16.90;99.90
971;DHT22;28939;45.540;-122.632;2022-08-04T11:09:33;16.90;99.90
971;DHT22;28939;45.540;-122.632;2022-08-04T11:12:09;16.90;99.90
971;DHT22;28939;45.540;-122.632;2022-08-04T11:14:45;17.00;99.90
971;DHT22;28939;45.540;-122.632;2022-08-04T11:17:23;17.00;99.90
971;DHT22;28939;45.540;-122.632;2022-08-04T11:20:02;17.10;99.90
971;DHT22;28939;45.540;-122.632;2022-08-04T11:23:02;17.10;99.90
971;DHT22;28939;45.540;-122.632;2022-08-04T11:25:44;17.10;99.90
971;DHT22;28939;45.540;-122.632;2022-08-04T11:28:26;17.20;99.90
971;DHT22;28939;45.540;-122.632;2022-08-04T11:31:03;17.20;99.90
971;DHT22;28939;45.540;-122.632;2022-08-04T11:33:39;17.20;99.90
971;DHT22;28939;45.540;-122.632;2022-08-04T11:36:19;17.20;99.90
971;DHT22;28939;45.540;-122.632;2022-08-04T11:39:04;17.20;99.90
971;DHT22;28939;45.540;-122.632;2022-08-04T11:41:47;17.30;99.90
971;DHT22;28939;45.540;-122.632;2022-08-04T11:44:24;17.30;99.90
971;DHT22;28939;45.540;-122.632;2022-08-04T11:47:01;17.10;99.90
971;DHT22;28939;45.540;-122.632;2022-08-04T11:49:36;17.10;99.90
971;DHT22;28939;45.540;-122.632;2022-08-04T11:52:27;17.10;99.90
971;DHT22;28939;45.540;-122.632;2022-08-04T11:55:03;17.10;99.90
971;DHT22;28939;45.540;-122.632;2022-08-04T11:57:35;17.00;99.90
971;DHT22;28939;45.540;-122.632;2022-08-04T12:00:07;17.00;99.90
971;DHT22;28939;45.540;-122.632;2022-08-04T12:02:59;17.10;99.90
971;DHT22;28939;45.540;-122.632;2022-08-04T12:05:32;17.10;99.90
971;DHT22;28939;45.540;-122.632;2022-08-04T12:08:35;17.10;99.90
971;DHT22;28939;45.540;-122.632;2022-08-04T12:11:15;17.10;99.90
971;DHT22;28939;45.540;-122.632;2022-08-04T12:13:59;17.00;99.90
971;DHT22;28939;45.540;-122.632;2022-08-04T12:16:49;17.00;99.90
971;DHT22;28939;45.540;-122.632;2022-08-04T12:19:28;17.00;99.90
971;DHT22;28939;45.540;-122.632;2022-08-04T12:22:21;16.90;99.90
971;DHT22;28939;45.540;-122.632;2022-08-04T12:25:02;17.00;99.90
971;DHT22;28939;45.540;-122.632;2022-08-04T12:27:38;17.00;99.90
971;DHT22;28939;45.540;-122.632;2022-08-04T12:30:11;17.00;99.90
971;DHT22;28939;45.540;-122.632;2022-08-04T12:33:06;16.90;99.90
971;DHT22;28939;45.540;-122.632;2022-08-04T12:35:49;16.90;99.90
971;DHT22;28939;45.540;-122.632;2022-08-04T12:38:43;16.90;99.90
971;DHT22;28939;45.540;-122.632;2022-08-04T12:41:23;16.80;99.90
971;DHT22;28939;45.540;-122.632;2022-08-04T12:43:54;16.80;99.90
971;DHT22;28939;45.540;-122.632;2022-08-04T12:46:37;16.90;99.90
971;DHT22;28939;45.540;-122.632;2022-08-04T12:49:09;16.80;99.90
971;DHT22;28939;45.540;-122.632;2022-08-04T12:51:43;16.70;99.90
971;DHT22;28939;45.540;-122.632;2022-08-04T12:54:36;16.70;99.90
971;DHT22;28939;45.540;-122.632;2022-08-04T12:57:14;16.70;99.90
971;DHT22;28939;45.540;-122.632;2022-08-04T12:59:47;16.70;99.90
971;DHT22;28939;45.540;-122.632;2022-08-04T13:02:27;16.70;99.90
971;DHT22;28939;45.540;-122.632;2022-08-04T13:05:03;16.70;99.90
971;DHT22;28939;45.540;-122.632;2022-08-04T13:07:38;16.60;99.90
971;DHT22;28939;45.540;-122.632;2022-08-04T13:10:11;16.60;99.90
971;DHT22;28939;45.540;-122.632;2022-08-04T13:12:55;16.50;99.90
971;DHT22;28939;45.540;-122.632;2022-08-04T13:15:26;16.60;99.90
971;DHT22;28939;45.540;-122.632;2022-08-04T13:18:01;16.50;99.90
971;DHT22;28939;45.540;-122.632;2022-08-04T13:20:43;16.50;99.90
971;DHT22;28939;45.540;-122.632;2022-08-04T13:23:16;16.60;99.90
971;DHT22;28939;45.540;-122.632;2022-08-04T13:25:50;16.60;99.90
971;DHT22;28939;45.540;-122.632;2022-08-04T13:28:46;16.60;99.90
971;DHT22;28939;45.540;-122.632;2022-08-04T13:31:19;16.70;99.90
971;DHT22;28939;45.540;-122.632;2022-08-04T13:33:53;16.70;99.90
971;DHT22;28939;45.540;-122.632;2022-08-04T13:36:25;16.60;99.90
971;DHT22;28939;45.540;-122.632;2022-08-04T13:38:59;16.70;99.90
971;DHT22;28939;45.540;-122.632;2022-08-04T13:41:32;16.90;99.90
971;DHT22;28939;45.540;-122.632;2022-08-04T13:44:10;17.00;99.90
971;DHT22;28939;45.540;-122.632;2022-08-04T13:46:49;16.90;99.90
971;DHT22;28939;45.540;-122.632;2022-08-04T13:49:21;16.90;99.90
971;DHT22;28939;45.540;-122.632;2022-08-04T13:52:12;16.90;99.90
971;DHT22;28939;45.540;-122.632;2022-08-04T13:54:45;16.90;99.90
971;DHT22;28939;45.540;-122.632;2022-08-04T13:57:30;17.00;99.90
971;DHT22;28939;45.540;-122.632;2022-08-04T14:00:06;17.10;99.90
971;DHT22;28939;45.540;-122.632;2022-08-04T14:02:41;17.20;99.90
971;DHT22;28939;45.540;-122.632;2022-08-04T14:05:16;17.10;99.90
971;DHT22;28939;45.540;-122.632;2022-08-04T14:07:59;17.00;99.90
971;DHT22;28939;45.540;-122.632;2022-08-04T14:10:31;17.20;99.90
971;DHT22;28939;45.540;-122.632;2022-08-04T14:13:04;17.20;99.90
971;DHT22;28939;45.540;-122.632;2022-08-04T14:15:39;17.30;99.90
971;DHT22;28939;45.540;-122.632;2022-08-04T14:18:31;17.40;99.90
971;DHT22;28939;45.540;-122.632;2022-08-04T14:21:05;17.40;99.90
971;DHT22;28939;45.540;-122.632;2022-08-04T14:23:41;17.50;99.90
971;DHT22;28939;45.540;-122.632;2022-08-04T14:26:16;17.50;99.90
971;DHT22;28939;45.540;-122.632;2022-08-04T14:29:07;17.40;99.90
971;DHT22;28939;45.540;-122.632;2022-08-04T14:32:06;17.50;99.90
971;DHT22;28939;45.540;-122.632;2022-08-04T14:34:52;17.50;99.90
971;DHT22;28939;45.540;-122.632;2022-08-04T14:37:23;17.50;99.90
971;DHT22;28939;45.540;-122.632;2022-08-04T14:39:54;17.50;99.90
971;DHT22;28939;45.540;-122.632;2022-08-04T14:42:45;17.60;99.90
971;DHT22;28939;45.540;-122.632;2022-08-04T14:45:30;17.60;99.90
971;DHT22;28939;45.540;-122.632;2022-08-04T14:48:06;17.70;99.90
971;DHT22;28939;45.540;-122.632;2022-08-04T14:50:39;17.80;99.90
971;DHT22;28939;45.540;-122.632;2022-08-04T14:53:12;18.00;99.90
971;DHT22;28939;45.540;-122.632;2022-08-04T14:55:45;18.10;99.90
971;DHT22;28939;45.540;-122.632;2022-08-04T14:58:17;18.20;99.90
971;DHT22;28939;45.540;-122.632;2022-08-04T15:01:05;18.40;99.90
971;DHT22;28939;45.540;-122.632;2022-08-04T15:03:42;18.30;99.90
971;DHT22;28939;45.540;-122.632;2022-08-04T15:06:20;18.50;99.90
971;DHT22;28939;45.540;-122.632;2022-08-04T15:08:54;18.70;99.90
971;DHT22;28939;45.540;-122.632;2022-08-04T15:11:26;18.90;99.90
971;DHT22;28939;45.540;-122.632;2022-08-04T15:13:57;19.00;99.90
971;DHT22;28939;45.540;-122.632;2022-08-04T15:16:30;19.20;99.90
971;DHT22;28939;45.540;-122.632;2022-08-04T15:19:02;19.30;99.90
971;DHT22;28939;45.540;-122.632;2022-08-04T15:21:34;19.30;99.90
971;DHT22;28939;45.540;-122.632;2022-08-04T15:24:06;19.20;99.90
971;DHT22;28939;45.540;-122.632;2022-08-04T15:26:40;19.50;99.90
971;DHT22;28939;45.540;-122.632;2022-08-04T15:29:16;19.50;99.90
971;DHT22;28939;45.540;-122.632;2022-08-04T15:31:48;19.60;99.90
971;DHT22;28939;45.540;-122.632;2022-08-04T15:34:49;19.60;99.90
971;DHT22;28939;45.540;-122.632;2022-08-04T15:37:26;19.90;99.90
971;DHT22;28939;45.540;-122.632;2022-08-04T15:40:08;20.20;99.90
971;DHT22;28939;45.540;-122.632;2022-08-04T15:42:45;20.30;99.90
971;DHT22;28939;45.540;-122.632;2022-08-04T15:45:21;20.70;99.90
971;DHT22;28939;45.540;-122.632;2022-08-04T15:48:32;20.80;99.90
971;DHT22;28939;45.540;-122.632;2022-08-04T15:51:10;20.90;99.90
971;DHT22;28939;45.540;-122.632;2022-08-04T15:54:20;20.90;99.90
971;DHT22;28939;45.540;-122.632;2022-08-04T15:56:59;22.90;98.90
971;DHT22;28939;45.540;-122.632;2022-08-04T15:59:58;25.20;94.00
971;DHT22;28939;45.540;-122.632;2022-08-04T16:02:36;27.40;90.00
971;DHT22;28939;45.540;-122.632;2022-08-04T16:05:34;29.30;76.10
971;DHT22;28939;45.540;-122.632;2022-08-04T16:08:15;29.80;71.50
971;DHT22;28939;45.540;-122.632;2022-08-04T16:10:48;28.40;71.70
971;DHT22;28939;45.540;-122.632;2022-08-04T16:13:20;27.90;74.50
971;DHT22;28939;45.540;-122.632;2022-08-04T16:15:52;28.50;73.00
971;DHT22;28939;45.540;-122.632;2022-08-04T16:18:41;27.80;72.80
971;DHT22;28939;45.540;-122.632;2022-08-04T16:21:19;26.30;79.40
971;DHT22;28939;45.540;-122.632;2022-08-04T16:24:14;25.70;80.60
971;DHT22;28939;45.540;-122.632;2022-08-04T16:26:49;25.30;84.10
971;DHT22;28939;45.540;-122.632;2022-08-04T16:29:34;25.10;83.70
971;DHT22;28939;45.540;-122.632;2022-08-04T16:32:13;25.00;84.00
971;DHT22;28939;45.540;-122.632;2022-08-04T16:34:47;24.80;85.30
971;DHT22;28939;45.540;-122.632;2022-08-04T16:37:30;24.60;85.90
971;DHT22;28939;45.540;-122.632;2022-08-04T16:40:30;24.10;86.00
971;DHT22;28939;45.540;-122.632;2022-08-04T16:43:07;23.30;89.00
971;DHT22;28939;45.540;-122.632;2022-08-04T16:45:44;23.20;90.90
971;DHT22;28939;45.540;-122.632;2022-08-04T16:48:17;23.40;90.50
971;DHT22;28939;45.540;-122.632;2022-08-04T16:50:51;23.20;90.90
971;DHT22;28939;45.540;-122.632;2022-08-04T16:53:23;22.80;91.20
971;DHT22;28939;45.540;-122.632;2022-08-04T16:56:16;22.30;92.40
971;DHT22;28939;45.540;-122.632;2022-08-04T16:58:47;22.10;92.90
971;DHT22;28939;45.540;-122.632;2022-08-04T17:01:21;22.10;93.00
971;DHT22;28939;45.540;-122.632;2022-08-04T17:04:01;22.10;92.70
971;DHT22;28939;45.540;-122.632;2022-08-04T17:06:36;21.90;93.30
971;DHT22;28939;45.540;-122.632;2022-08-04T17:09:10;21.90;93.50
971;DHT22;28939;45.540;-122.632;2022-08-04T17:11:44;22.00;93.10
971;DHT22;28939;45.540;-122.632;2022-08-04T17:14:21;22.20;93.50
971;DHT22;28939;45.540;-122.632;2022-08-04T17:16:53;21.90;94.70
971;DHT22;28939;45.540;-122.632;2022-08-04T17:19:25;22.00;93.30
971;DHT22;28939;45.540;-122.632;2022-08-04T17:22:01;21.50;94.40